DAUH/HME METAR and TAF weather

Enter ICAO airport designator
Station Type Date Time Source
DAUH METAR 2019/02/20 07:00 UTC NOAA

DAUH 200700Z 35006KT 9999 SCT040 BKN233 10/00 Q1015


Station Type Date Time Source
DAUH Decoded METAR 2019/02/20 07:00 UTC NOAA

Hassi-Messaoud, Algeria (DAUH) 31-40N 006-09E 142M
Feb 20, 2019 - 02:00 AM EST / 2019.02.20 0700 UTC
Wind: from the N (350 degrees) at 7 MPH (6 KT):0
Visibility: greater than 7 mile(s):0
Sky conditions: mostly cloudy
Temperature: 50 F (10 C)
Dew Point: 32 F (0 C)
Relative Humidity: 49%
Pressure (altimeter): 29.97 in. Hg (1015 hPa)
ob: DAUH 200700Z 35006KT 9999 SCT040 BKN233 10/00 Q1015
cycle: 7

Station Type Date Time Source
DAUH TAF 2019/02/20 06:33 UTC NOAA

TAF TAF DAUH 200500Z 2006/2106 36008KT CAVOK
BECMG 2007/2011 02018KT 5000 DRSA PROB40
TEMPO 2010/2018 02018G28KT 3000 PROB30
TEMPO 2012/2016 02025G35KT 1000 BLSA


Example: see airport list